sensor_id;sensor_type;location;lat;lon;timestamp;P1;durP1;ratioP1;P2;durP2;ratioP2
45356;SDS011;31092;51.924;21.448;2022-08-19T00:01:29;5.72;;;4.20;;
45356;SDS011;31092;51.924;21.448;2022-08-19T00:03:58;5.03;;;4.32;;
45356;SDS011;31092;51.924;21.448;2022-08-19T00:06:29;8.52;;;4.55;;
45356;SDS011;31092;51.924;21.448;2022-08-19T00:08:56;6.55;;;4.68;;
45356;SDS011;31092;51.924;21.448;2022-08-19T00:11:22;5.40;;;4.90;;
45356;SDS011;31092;51.924;21.448;2022-08-19T00:13:49;5.45;;;4.82;;
45356;SDS011;31092;51.924;21.448;2022-08-19T00:16:16;5.95;;;4.47;;
45356;SDS011;31092;51.924;21.448;2022-08-19T00:18:44;5.90;;;4.45;;
45356;SDS011;31092;51.924;21.448;2022-08-19T00:21:20;4.82;;;4.43;;
45356;SDS011;31092;51.924;21.448;2022-08-19T00:23:46;5.80;;;5.20;;
45356;SDS011;31092;51.924;21.448;2022-08-19T00:26:12;5.05;;;4.55;;
45356;SDS011;31092;51.924;21.448;2022-08-19T00:28:41;4.97;;;4.47;;
45356;SDS011;31092;51.924;21.448;2022-08-19T00:31:07;7.47;;;4.55;;
45356;SDS011;31092;51.924;21.448;2022-08-19T00:33:34;5.22;;;4.50;;
45356;SDS011;31092;51.924;21.448;2022-08-19T00:36:01;7.38;;;4.85;;
45356;SDS011;31092;51.924;21.448;2022-08-19T00:38:29;5.22;;;4.43;;
45356;SDS011;31092;51.924;21.448;2022-08-19T00:40:55;5.00;;;3.95;;
45356;SDS011;31092;51.924;21.448;2022-08-19T00:43:28;6.05;;;4.53;;
45356;SDS011;31092;51.924;21.448;2022-08-19T00:45:57;10.43;;;4.82;;
45356;SDS011;31092;51.924;21.448;2022-08-19T00:48:24;4.70;;;3.97;;
45356;SDS011;31092;51.924;21.448;2022-08-19T00:50:50;4.45;;;4.00;;
45356;SDS011;31092;51.924;21.448;2022-08-19T00:53:19;7.43;;;4.55;;
45356;SDS011;31092;51.924;21.448;2022-08-19T00:55:48;4.55;;;4.07;;
45356;SDS011;31092;51.924;21.448;2022-08-19T00:58:18;4.38;;;3.95;;
45356;SDS011;31092;51.924;21.448;2022-08-19T01:00:46;7.13;;;4.57;;
45356;SDS011;31092;51.924;21.448;2022-08-19T01:03:14;5.13;;;4.63;;
45356;SDS011;31092;51.924;21.448;2022-08-19T01:05:43;5.80;;;5.03;;
45356;SDS011;31092;51.924;21.448;2022-08-19T01:08:13;4.93;;;4.40;;
45356;SDS011;31092;51.924;21.448;2022-08-19T01:11:14;6.85;;;4.70;;
45356;SDS011;31092;51.924;21.448;2022-08-19T01:13:33;7.65;;;5.18;;
45356;SDS011;31092;51.924;21.448;2022-08-19T01:16:05;6.93;;;5.15;;
45356;SDS011;31092;51.924;21.448;2022-08-19T01:18:38;4.53;;;3.95;;
45356;SDS011;31092;51.924;21.448;2022-08-19T01:21:10;6.47;;;4.93;;
45356;SDS011;31092;51.924;21.448;2022-08-19T01:23:43;5.07;;;4.47;;
45356;SDS011;31092;51.924;21.448;2022-08-19T01:26:14;6.35;;;4.68;;
45356;SDS011;31092;51.924;21.448;2022-08-19T01:28:43;8.10;;;5.03;;
45356;SDS011;31092;51.924;21.448;2022-08-19T01:31:12;5.60;;;4.90;;
45356;SDS011;31092;51.924;21.448;2022-08-19T01:33:39;5.95;;;5.10;;
45356;SDS011;31092;51.924;21.448;2022-08-19T01:36:06;6.55;;;4.93;;
45356;SDS011;31092;51.924;21.448;2022-08-19T01:38:35;5.35;;;4.68;;
45356;SDS011;31092;51.924;21.448;2022-08-19T01:41:03;4.93;;;4.20;;
45356;SDS011;31092;51.924;21.448;2022-08-19T01:43:29;7.78;;;4.68;;
45356;SDS011;31092;51.924;21.448;2022-08-19T01:46:05;4.93;;;4.38;;
45356;SDS011;31092;51.924;21.448;2022-08-19T01:48:36;4.82;;;4.32;;
45356;SDS011;31092;51.924;21.448;2022-08-19T01:51:05;5.65;;;4.90;;
45356;SDS011;31092;51.924;21.448;2022-08-19T01:53:32;5.20;;;4.60;;
45356;SDS011;31092;51.924;21.448;2022-08-19T01:55:58;5.45;;;4.65;;
45356;SDS011;31092;51.924;21.448;2022-08-19T01:58:26;6.65;;;5.10;;
45356;SDS011;31092;51.924;21.448;2022-08-19T02:00:55;9.13;;;4.78;;
45356;SDS011;31092;51.924;21.448;2022-08-19T02:03:22;5.40;;;4.90;;
45356;SDS011;31092;51.924;21.448;2022-08-19T02:05:52;5.93;;;4.65;;
45356;SDS011;31092;51.924;21.448;2022-08-19T02:08:19;6.30;;;4.95;;
45356;SDS011;31092;51.924;21.448;2022-08-19T02:10:45;5.88;;;4.88;;
45356;SDS011;31092;51.924;21.448;2022-08-19T02:13:11;5.78;;;5.28;;
45356;SDS011;31092;51.924;21.448;2022-08-19T02:15:38;6.13;;;4.90;;
45356;SDS011;31092;51.924;21.448;2022-08-19T02:18:04;7.25;;;5.53;;
45356;SDS011;31092;51.924;21.448;2022-08-19T02:20:31;5.05;;;4.47;;
45356;SDS011;31092;51.924;21.448;2022-08-19T02:22:56;8.20;;;5.60;;
45356;SDS011;31092;51.924;21.448;2022-08-19T02:25:22;9.95;;;4.90;;
45356;SDS011;31092;51.924;21.448;2022-08-19T02:27:53;8.80;;;5.90;;
45356;SDS011;31092;51.924;21.448;2022-08-19T02:30:19;5.60;;;5.05;;
45356;SDS011;31092;51.924;21.448;2022-08-19T02:35:21;5.05;;;4.60;;
45356;SDS011;31092;51.924;21.448;2022-08-19T02:37:47;6.82;;;5.22;;
45356;SDS011;31092;51.924;21.448;2022-08-19T02:40:31;10.57;;;5.25;;
45356;SDS011;31092;51.924;21.448;2022-08-19T02:43:05;6.75;;;6.03;;
45356;SDS011;31092;51.924;21.448;2022-08-19T02:45:36;6.55;;;5.53;;
45356;SDS011;31092;51.924;21.448;2022-08-19T02:48:04;6.70;;;5.05;;
45356;SDS011;31092;51.924;21.448;2022-08-19T02:50:30;6.10;;;5.40;;
45356;SDS011;31092;51.924;21.448;2022-08-19T02:52:57;6.22;;;5.30;;
45356;SDS011;31092;51.924;21.448;2022-08-19T02:55:23;5.72;;;5.13;;
45356;SDS011;31092;51.924;21.448;2022-08-19T02:57:54;7.30;;;5.10;;
45356;SDS011;31092;51.924;21.448;2022-08-19T03:00:29;5.40;;;4.60;;
45356;SDS011;31092;51.924;21.448;2022-08-19T03:03:12;7.65;;;5.15;;
45356;SDS011;31092;51.924;21.448;2022-08-19T03:05:38;5.47;;;4.97;;
45356;SDS011;31092;51.924;21.448;2022-08-19T03:08:04;7.43;;;4.63;;
45356;SDS011;31092;51.924;21.448;2022-08-19T03:10:31;6.32;;;4.97;;
45356;SDS011;31092;51.924;21.448;2022-08-19T03:12:57;5.82;;;4.75;;
45356;SDS011;31092;51.924;21.448;2022-08-19T03:15:41;7.25;;;4.95;;
45356;SDS011;31092;51.924;21.448;2022-08-19T03:18:08;6.35;;;5.15;;
45356;SDS011;31092;51.924;21.448;2022-08-19T03:20:39;7.70;;;5.78;;
45356;SDS011;31092;51.924;21.448;2022-08-19T03:23:15;5.90;;;5.30;;
45356;SDS011;31092;51.924;21.448;2022-08-19T03:25:43;5.10;;;4.63;;
45356;SDS011;31092;51.924;21.448;2022-08-19T03:28:20;6.28;;;5.10;;
45356;SDS011;31092;51.924;21.448;2022-08-19T03:30:56;6.78;;;5.38;;
45356;SDS011;31092;51.924;21.448;2022-08-19T03:38:36;7.60;;;5.53;;
45356;SDS011;31092;51.924;21.448;2022-08-19T03:41:04;5.88;;;5.15;;
45356;SDS011;31092;51.924;21.448;2022-08-19T03:43:32;4.82;;;4.28;;
45356;SDS011;31092;51.924;21.448;2022-08-19T03:46:11;5.75;;;5.13;;
45356;SDS011;31092;51.924;21.448;2022-08-19T03:48:42;6.75;;;5.43;;
45356;SDS011;31092;51.924;21.448;2022-08-19T03:51:15;9.13;;;6.22;;
45356;SDS011;31092;51.924;21.448;2022-08-19T03:53:54;6.97;;;5.43;;
45356;SDS011;31092;51.924;21.448;2022-08-19T03:56:24;6.97;;;5.03;;
45356;SDS011;31092;51.924;21.448;2022-08-19T03:58:51;7.28;;;5.38;;
45356;SDS011;31092;51.924;21.448;2022-08-19T04:01:19;6.03;;;5.20;;
45356;SDS011;31092;51.924;21.448;2022-08-19T04:03:46;6.00;;;4.65;;
45356;SDS011;31092;51.924;21.448;2022-08-19T04:06:17;11.18;;;6.25;;
45356;SDS011;31092;51.924;21.448;2022-08-19T04:08:48;6.15;;;5.30;;
45356;SDS011;31092;51.924;21.448;2022-08-19T04:11:17;5.75;;;5.20;;
45356;SDS011;31092;51.924;21.448;2022-08-19T04:13:48;5.15;;;4.65;;
45356;SDS011;31092;51.924;21.448;2022-08-19T04:16:17;5.70;;;5.07;;
45356;SDS011;31092;51.924;21.448;2022-08-19T04:18:44;8.50;;;5.40;;
45356;SDS011;31092;51.924;21.448;2022-08-19T04:21:15;6.38;;;5.53;;
45356;SDS011;31092;51.924;21.448;2022-08-19T04:23:42;5.88;;;4.93;;
45356;SDS011;31092;51.924;21.448;2022-08-19T04:26:18;8.48;;;6.15;;
45356;SDS011;31092;51.924;21.448;2022-08-19T04:31:18;7.45;;;5.25;;
45356;SDS011;31092;51.924;21.448;2022-08-19T04:33:45;6.72;;;5.28;;
45356;SDS011;31092;51.924;21.448;2022-08-19T04:36:21;7.47;;;5.63;;
45356;SDS011;31092;51.924;21.448;2022-08-19T04:38:55;8.82;;;6.43;;
45356;SDS011;31092;51.924;21.448;2022-08-19T04:41:26;6.53;;;5.47;;
45356;SDS011;31092;51.924;21.448;2022-08-19T04:44:11;6.82;;;5.47;;
45356;SDS011;31092;51.924;21.448;2022-08-19T04:46:37;6.30;;;5.22;;
45356;SDS011;31092;51.924;21.448;2022-08-19T04:49:03;6.35;;;5.38;;
45356;SDS011;31092;51.924;21.448;2022-08-19T04:51:31;6.82;;;5.38;;
45356;SDS011;31092;51.924;21.448;2022-08-19T04:53:58;6.13;;;5.22;;
45356;SDS011;31092;51.924;21.448;2022-08-19T04:56:25;9.63;;;5.63;;
45356;SDS011;31092;51.924;21.448;2022-08-19T04:58:52;6.40;;;5.03;;
45356;SDS011;31092;51.924;21.448;2022-08-19T05:01:20;10.73;;;5.85;;
45356;SDS011;31092;51.924;21.448;2022-08-19T05:06:33;5.28;;;4.85;;
45356;SDS011;31092;51.924;21.448;2022-08-19T05:09:00;6.45;;;5.43;;
45356;SDS011;31092;51.924;21.448;2022-08-19T05:11:29;4.93;;;4.43;;
45356;SDS011;31092;51.924;21.448;2022-08-19T05:13:57;7.90;;;5.00;;
45356;SDS011;31092;51.924;21.448;2022-08-19T05:16:23;5.05;;;4.35;;
45356;SDS011;31092;51.924;21.448;2022-08-19T05:18:50;5.95;;;4.28;;
45356;SDS011;31092;51.924;21.448;2022-08-19T05:21:35;4.82;;;4.38;;
45356;SDS011;31092;51.924;21.448;2022-08-19T05:24:20;8.73;;;4.32;;
45356;SDS011;31092;51.924;21.448;2022-08-19T05:26:48;5.20;;;4.65;;
45356;SDS011;31092;51.924;21.448;2022-08-19T05:29:16;6.13;;;4.65;;
45356;SDS011;31092;51.924;21.448;2022-08-19T05:31:44;4.85;;;4.45;;
45356;SDS011;31092;51.924;21.448;2022-08-19T05:34:11;8.07;;;4.95;;
45356;SDS011;31092;51.924;21.448;2022-08-19T05:36:38;5.60;;;5.10;;
45356;SDS011;31092;51.924;21.448;2022-08-19T05:39:07;5.75;;;4.82;;
45356;SDS011;31092;51.924;21.448;2022-08-19T05:41:34;6.15;;;5.07;;
45356;SDS011;31092;51.924;21.448;2022-08-19T05:44:03;4.47;;;4.07;;
45356;SDS011;31092;51.924;21.448;2022-08-19T05:46:34;4.25;;;3.92;;
45356;SDS011;31092;51.924;21.448;2022-08-19T05:49:02;7.78;;;4.50;;
45356;SDS011;31092;51.924;21.448;2022-08-19T05:51:32;6.60;;;4.80;;
45356;SDS011;31092;51.924;21.448;2022-08-19T05:54:03;5.72;;;4.97;;
45356;SDS011;31092;51.924;21.448;2022-08-19T05:56:31;4.40;;;4.00;;
45356;SDS011;31092;51.924;21.448;2022-08-19T05:58:57;6.47;;;5.53;;
45356;SDS011;31092;51.924;21.448;2022-08-19T06:01:24;5.13;;;4.50;;
45356;SDS011;31092;51.924;21.448;2022-08-19T06:03:56;5.07;;;4.63;;
45356;SDS011;31092;51.924;21.448;2022-08-19T06:06:22;5.53;;;4.45;;
45356;SDS011;31092;51.924;21.448;2022-08-19T06:08:48;5.43;;;4.15;;
45356;SDS011;31092;51.924;21.448;2022-08-19T06:11:19;4.88;;;4.35;;
45356;SDS011;31092;51.924;21.448;2022-08-19T06:14:01;4.78;;;4.32;;
45356;SDS011;31092;51.924;21.448;2022-08-19T06:16:29;4.53;;;4.13;;
45356;SDS011;31092;51.924;21.448;2022-08-19T06:18:58;5.60;;;4.30;;
45356;SDS011;31092;51.924;21.448;2022-08-19T06:21:26;4.97;;;4.45;;
45356;SDS011;31092;51.924;21.448;2022-08-19T06:23:54;5.63;;;4.50;;
45356;SDS011;31092;51.924;21.448;2022-08-19T06:26:23;5.32;;;4.13;;
45356;SDS011;31092;51.924;21.448;2022-08-19T06:28:50;4.35;;;3.95;;
45356;SDS011;31092;51.924;21.448;2022-08-19T06:31:17;5.80;;;4.72;;
45356;SDS011;31092;51.924;21.448;2022-08-19T06:33:48;4.55;;;4.10;;
45356;SDS011;31092;51.924;21.448;2022-08-19T06:36:19;5.40;;;4.10;;
45356;SDS011;31092;51.924;21.448;2022-08-19T06:38:48;6.03;;;4.40;;
45356;SDS011;31092;51.924;21.448;2022-08-19T06:41:14;4.80;;;4.07;;
45356;SDS011;31092;51.924;21.448;2022-08-19T06:43:39;5.43;;;4.93;;
45356;SDS011;31092;51.924;21.448;2022-08-19T06:46:16;4.78;;;4.32;;
45356;SDS011;31092;51.924;21.448;2022-08-19T06:48:43;5.88;;;4.65;;
45356;SDS011;31092;51.924;21.448;2022-08-19T06:51:09;6.00;;;4.00;;
45356;SDS011;31092;51.924;21.448;2022-08-19T06:53:35;4.15;;;3.80;;
45356;SDS011;31092;51.924;21.448;2022-08-19T06:56:00;5.90;;;4.82;;
45356;SDS011;31092;51.924;21.448;2022-08-19T06:58:27;5.97;;;4.85;;
45356;SDS011;31092;51.924;21.448;2022-08-19T07:01:01;4.72;;;4.32;;
45356;SDS011;31092;51.924;21.448;2022-08-19T07:03:31;5.33;;;4.83;;
45356;SDS011;31092;51.924;21.448;2022-08-19T07:06:31;7.03;;;4.72;;
45356;SDS011;31092;51.924;21.448;2022-08-19T07:08:50;4.80;;;4.40;;
45356;SDS011;31092;51.924;21.448;2022-08-19T07:11:17;4.82;;;4.32;;
45356;SDS011;31092;51.924;21.448;2022-08-19T07:13:44;5.28;;;4.40;;
45356;SDS011;31092;51.924;21.448;2022-08-19T07:16:12;4.85;;;4.45;;
45356;SDS011;31092;51.924;21.448;2022-08-19T07:18:39;5.50;;;5.00;;
45356;SDS011;31092;51.924;21.448;2022-08-19T07:21:12;4.63;;;3.97;;
45356;SDS011;31092;51.924;21.448;2022-08-19T07:23:40;4.00;;;3.70;;
45356;SDS011;31092;51.924;21.448;2022-08-19T07:26:08;4.65;;;4.25;;
45356;SDS011;31092;51.924;21.448;2022-08-19T07:28:35;4.18;;;3.88;;
45356;SDS011;31092;51.924;21.448;2022-08-19T07:31:05;6.88;;;4.25;;
45356;SDS011;31092;51.924;21.448;2022-08-19T07:33:38;7.28;;;4.72;;
45356;SDS011;31092;51.924;21.448;2022-08-19T07:36:06;3.90;;;3.60;;
45356;SDS011;31092;51.924;21.448;2022-08-19T07:38:35;5.45;;;4.95;;
45356;SDS011;31092;51.924;21.448;2022-08-19T07:41:01;4.13;;;3.78;;
45356;SDS011;31092;51.924;21.448;2022-08-19T07:43:27;4.15;;;3.78;;
45356;SDS011;31092;51.924;21.448;2022-08-19T07:45:53;4.55;;;4.15;;
45356;SDS011;31092;51.924;21.448;2022-08-19T07:48:30;6.25;;;4.22;;
45356;SDS011;31092;51.924;21.448;2022-08-19T07:50:57;5.38;;;4.88;;
45356;SDS011;31092;51.924;21.448;2022-08-19T07:53:27;4.85;;;4.30;;
45356;SDS011;31092;51.924;21.448;2022-08-19T07:55:54;4.30;;;3.90;;
45356;SDS011;31092;51.924;21.448;2022-08-19T07:58:25;4.30;;;3.85;;
45356;SDS011;31092;51.924;21.448;2022-08-19T08:00:50;5.00;;;4.50;;
45356;SDS011;31092;51.924;21.448;2022-08-19T08:03:18;3.92;;;3.63;;
45356;SDS011;31092;51.924;21.448;2022-08-19T08:05:45;4.85;;;3.78;;
45356;SDS011;31092;51.924;21.448;2022-08-19T08:08:30;6.80;;;3.85;;
45356;SDS011;31092;51.924;21.448;2022-08-19T08:11:02;3.65;;;3.22;;
45356;SDS011;31092;51.924;21.448;2022-08-19T08:13:28;4.60;;;4.20;;
45356;SDS011;31092;51.924;21.448;2022-08-19T08:15:53;3.45;;;3.15;;
45356;SDS011;31092;51.924;21.448;2022-08-19T08:18:19;4.35;;;4.00;;
45356;SDS011;31092;51.924;21.448;2022-08-19T08:20:45;4.25;;;3.88;;
45356;SDS011;31092;51.924;21.448;2022-08-19T08:23:11;3.95;;;3.65;;
45356;SDS011;31092;51.924;21.448;2022-08-19T08:25:52;3.78;;;3.50;;
45356;SDS011;31092;51.924;21.448;2022-08-19T08:28:20;3.95;;;3.58;;
45356;SDS011;31092;51.924;21.448;2022-08-19T08:30:46;3.60;;;3.33;;
45356;SDS011;31092;51.924;21.448;2022-08-19T08:33:13;4.85;;;4.45;;
45356;SDS011;31092;51.924;21.448;2022-08-19T08:35:42;4.43;;;3.58;;
45356;SDS011;31092;51.924;21.448;2022-08-19T08:38:07;4.28;;;3.88;;
45356;SDS011;31092;51.924;21.448;2022-08-19T08:43:11;3.33;;;3.13;;
45356;SDS011;31092;51.924;21.448;2022-08-19T08:46:21;3.35;;;3.15;;
45356;SDS011;31092;51.924;21.448;2022-08-19T08:51:33;4.55;;;3.30;;
45356;SDS011;31092;51.924;21.448;2022-08-19T08:54:06;3.55;;;3.25;;
45356;SDS011;31092;51.924;21.448;2022-08-19T08:56:37;4.28;;;3.92;;
45356;SDS011;31092;51.924;21.448;2022-08-19T08:59:05;3.75;;;3.45;;
45356;SDS011;31092;51.924;21.448;2022-08-19T09:01:37;5.20;;;2.85;;
45356;SDS011;31092;51.924;21.448;2022-08-19T09:04:06;3.58;;;3.35;;
45356;SDS011;31092;51.924;21.448;2022-08-19T09:07:16;3.90;;;3.53;;
45356;SDS011;31092;51.924;21.448;2022-08-19T09:09:43;3.70;;;3.40;;
45356;SDS011;31092;51.924;21.448;2022-08-19T09:14:47;4.35;;;3.95;;
45356;SDS011;31092;51.924;21.448;2022-08-19T09:17:14;3.75;;;3.45;;
45356;SDS011;31092;51.924;21.448;2022-08-19T09:22:45;2.92;;;2.70;;
45356;SDS011;31092;51.924;21.448;2022-08-19T09:25:15;4.25;;;3.70;;
45356;SDS011;31092;51.924;21.448;2022-08-19T09:27:43;3.47;;;3.17;;
45356;SDS011;31092;51.924;21.448;2022-08-19T09:30:13;3.45;;;3.10;;
45356;SDS011;31092;51.924;21.448;2022-08-19T09:32:45;3.65;;;3.20;;
45356;SDS011;31092;51.924;21.448;2022-08-19T09:35:11;3.53;;;3.22;;
45356;SDS011;31092;51.924;21.448;2022-08-19T09:37:39;3.88;;;3.50;;
45356;SDS011;31092;51.924;21.448;2022-08-19T09:40:05;3.15;;;2.90;;
45356;SDS011;31092;51.924;21.448;2022-08-19T09:42:32;3.65;;;3.45;;
45356;SDS011;31092;51.924;21.448;2022-08-19T09:44:58;3.50;;;2.95;;
45356;SDS011;31092;51.924;21.448;2022-08-19T09:47:24;3.22;;;3.03;;
45356;SDS011;31092;51.924;21.448;2022-08-19T09:49:49;2.88;;;2.63;;
45356;SDS011;31092;51.924;21.448;2022-08-19T09:52:15;3.17;;;2.97;;
45356;SDS011;31092;51.924;21.448;2022-08-19T09:54:41;4.47;;;3.70;;
45356;SDS011;31092;51.924;21.448;2022-08-19T09:57:06;3.10;;;2.90;;
45356;SDS011;31092;51.924;21.448;2022-08-19T09:59:32;3.63;;;3.33;;
45356;SDS011;31092;51.924;21.448;2022-08-19T10:01:58;3.50;;;3.20;;
45356;SDS011;31092;51.924;21.448;2022-08-19T10:04:24;3.95;;;3.70;;
45356;SDS011;31092;51.924;21.448;2022-08-19T10:07:09;3.42;;;3.15;;
45356;SDS011;31092;51.924;21.448;2022-08-19T10:09:35;3.13;;;2.92;;
45356;SDS011;31092;51.924;21.448;2022-08-19T10:12:01;3.42;;;3.17;;
45356;SDS011;31092;51.924;21.448;2022-08-19T10:14:29;3.63;;;3.33;;
45356;SDS011;31092;51.924;21.448;2022-08-19T10:16:55;3.40;;;3.10;;
45356;SDS011;31092;51.924;21.448;2022-08-19T10:19:21;3.45;;;3.15;;
45356;SDS011;31092;51.924;21.448;2022-08-19T10:21:47;2.83;;;2.63;;
45356;SDS011;31092;51.924;21.448;2022-08-19T10:24:12;3.20;;;2.90;;
45356;SDS011;31092;51.924;21.448;2022-08-19T10:26:38;4.63;;;3.40;;
45356;SDS011;31092;51.924;21.448;2022-08-19T10:29:10;2.90;;;2.70;;
45356;SDS011;31092;51.924;21.448;2022-08-19T10:31:36;3.63;;;3.33;;
45356;SDS011;31092;51.924;21.448;2022-08-19T10:34:02;3.60;;;3.30;;
45356;SDS011;31092;51.924;21.448;2022-08-19T10:36:31;3.22;;;2.65;;
45356;SDS011;31092;51.924;21.448;2022-08-19T10:39:04;2.80;;;2.60;;
45356;SDS011;31092;51.924;21.448;2022-08-19T10:41:32;4.22;;;3.40;;
45356;SDS011;31092;51.924;21.448;2022-08-19T10:44:02;4.25;;;3.90;;
45356;SDS011;31092;51.924;21.448;2022-08-19T10:46:30;3.22;;;2.95;;
45356;SDS011;31092;51.924;21.448;2022-08-19T10:48:59;3.13;;;2.83;;
45356;SDS011;31092;51.924;21.448;2022-08-19T10:51:26;3.65;;;3.15;;
45356;SDS011;31092;51.924;21.448;2022-08-19T10:54:10;2.50;;;2.30;;
45356;SDS011;31092;51.924;21.448;2022-08-19T10:56:36;4.50;;;3.42;;
45356;SDS011;31092;51.924;21.448;2022-08-19T10:59:23;3.58;;;3.28;;
45356;SDS011;31092;51.924;21.448;2022-08-19T11:01:53;2.95;;;2.75;;
45356;SDS011;31092;51.924;21.448;2022-08-19T11:04:23;3.80;;;3.38;;
45356;SDS011;31092;51.924;21.448;2022-08-19T11:06:49;2.75;;;2.55;;
45356;SDS011;31092;51.924;21.448;2022-08-19T11:09:15;7.95;;;3.47;;
45356;SDS011;31092;51.924;21.448;2022-08-19T11:11:43;3.42;;;3.20;;
45356;SDS011;31092;51.924;21.448;2022-08-19T11:14:10;3.78;;;3.47;;
45356;SDS011;31092;51.924;21.448;2022-08-19T11:16:37;3.85;;;2.78;;
45356;SDS011;31092;51.924;21.448;2022-08-19T11:19:04;2.97;;;2.78;;
45356;SDS011;31092;51.924;21.448;2022-08-19T11:21:34;3.10;;;2.80;;
45356;SDS011;31092;51.924;21.448;2022-08-19T11:24:04;4.15;;;3.38;;
45356;SDS011;31092;51.924;21.448;2022-08-19T11:26:32;3.58;;;2.70;;
45356;SDS011;31092;51.924;21.448;2022-08-19T11:28:58;3.40;;;3.10;;
45356;SDS011;31092;51.924;21.448;2022-08-19T11:31:26;5.10;;;3.30;;
45356;SDS011;31092;51.924;21.448;2022-08-19T11:33:56;2.92;;;2.72;;
45356;SDS011;31092;51.924;21.448;2022-08-19T11:36:24;3.13;;;2.80;;
45356;SDS011;31092;51.924;21.448;2022-08-19T11:38:50;3.33;;;3.03;;
45356;SDS011;31092;51.924;21.448;2022-08-19T11:41:22;6.03;;;2.55;;
45356;SDS011;31092;51.924;21.448;2022-08-19T11:43:49;3.10;;;2.83;;
45356;SDS011;31092;51.924;21.448;2022-08-19T11:48:44;3.38;;;3.08;;
45356;SDS011;31092;51.924;21.448;2022-08-19T11:51:13;4.63;;;2.92;;
45356;SDS011;31092;51.924;21.448;2022-08-19T11:53:40;2.42;;;2.28;;
45356;SDS011;31092;51.924;21.448;2022-08-19T11:56:07;3.55;;;3.22;;
45356;SDS011;31092;51.924;21.448;2022-08-19T11:58:33;2.88;;;2.67;;
45356;SDS011;31092;51.924;21.448;2022-08-19T12:00:59;2.88;;;2.67;;
45356;SDS011;31092;51.924;21.448;2022-08-19T12:03:25;4.07;;;2.72;;
45356;SDS011;31092;51.924;21.448;2022-08-19T12:05:51;3.38;;;2.83;;
45356;SDS011;31092;51.924;21.448;2022-08-19T12:08:17;3.60;;;3.10;;
45356;SDS011;31092;51.924;21.448;2022-08-19T12:10:43;4.07;;;2.88;;
45356;SDS011;31092;51.924;21.448;2022-08-19T12:13:10;3.08;;;2.83;;
45356;SDS011;31092;51.924;21.448;2022-08-19T12:15:43;3.10;;;2.90;;
45356;SDS011;31092;51.924;21.448;2022-08-19T12:18:10;3.05;;;2.78;;
45356;SDS011;31092;51.924;21.448;2022-08-19T12:20:36;3.03;;;2.80;;
45356;SDS011;31092;51.924;21.448;2022-08-19T12:23:05;2.60;;;2.40;;
45356;SDS011;31092;51.924;21.448;2022-08-19T12:25:32;2.50;;;2.40;;
45356;SDS011;31092;51.924;21.448;2022-08-19T12:27:58;3.15;;;2.72;;
45356;SDS011;31092;51.924;21.448;2022-08-19T12:30:24;3.17;;;2.75;;
45356;SDS011;31092;51.924;21.448;2022-08-19T12:32:50;3.92;;;2.35;;
45356;SDS011;31092;51.924;21.448;2022-08-19T12:35:16;2.47;;;2.30;;
45356;SDS011;31092;51.924;21.448;2022-08-19T12:37:44;3.00;;;2.15;;
45356;SDS011;31092;51.924;21.448;2022-08-19T12:40:11;2.55;;;2.35;;
45356;SDS011;31092;51.924;21.448;2022-08-19T12:42:39;2.13;;;2.03;;
45356;SDS011;31092;51.924;21.448;2022-08-19T12:45:12;2.83;;;2.63;;
45356;SDS011;31092;51.924;21.448;2022-08-19T12:47:38;2.72;;;2.42;;
45356;SDS011;31092;51.924;21.448;2022-08-19T12:50:04;2.30;;;2.17;;
45356;SDS011;31092;51.924;21.448;2022-08-19T12:52:33;2.33;;;2.22;;
45356;SDS011;31092;51.924;21.448;2022-08-19T12:55:02;2.33;;;2.13;;
45356;SDS011;31092;51.924;21.448;2022-08-19T12:57:30;3.40;;;2.58;;
45356;SDS011;31092;51.924;21.448;2022-08-19T13:00:09;3.70;;;2.78;;
45356;SDS011;31092;51.924;21.448;2022-08-19T13:02:38;2.42;;;2.22;;
45356;SDS011;31092;51.924;21.448;2022-08-19T13:05:06;2.25;;;2.05;;
45356;SDS011;31092;51.924;21.448;2022-08-19T13:07:33;2.45;;;2.25;;
45356;SDS011;31092;51.924;21.448;2022-08-19T13:09:59;2.10;;;2.00;;
45356;SDS011;31092;51.924;21.448;2022-08-19T13:12:25;2.92;;;2.45;;
45356;SDS011;31092;51.924;21.448;2022-08-19T13:14:52;2.55;;;2.35;;
45356;SDS011;31092;51.924;21.448;2022-08-19T13:17:18;2.60;;;2.40;;
45356;SDS011;31092;51.924;21.448;2022-08-19T13:19:43;2.05;;;1.95;;
45356;SDS011;31092;51.924;21.448;2022-08-19T13:22:12;2.58;;;2.38;;
45356;SDS011;31092;51.924;21.448;2022-08-19T13:24:38;2.10;;;1.95;;
45356;SDS011;31092;51.924;21.448;2022-08-19T13:27:03;2.33;;;1.88;;
45356;SDS011;31092;51.924;21.448;2022-08-19T13:29:29;4.88;;;2.45;;
45356;SDS011;31092;51.924;21.448;2022-08-19T13:32:14;2.20;;;2.00;;
45356;SDS011;31092;51.924;21.448;2022-08-19T13:34:57;1.95;;;1.85;;
45356;SDS011;31092;51.924;21.448;2022-08-19T13:37:23;2.10;;;2.00;;
45356;SDS011;31092;51.924;21.448;2022-08-19T13:40:12;6.07;;;2.22;;
45356;SDS011;31092;51.924;21.448;2022-08-19T13:42:41;3.55;;;2.10;;
45356;SDS011;31092;51.924;21.448;2022-08-19T13:45:09;2.00;;;1.90;;
45356;SDS011;31092;51.924;21.448;2022-08-19T13:47:35;2.25;;;2.05;;
45356;SDS011;31092;51.924;21.448;2022-08-19T13:50:24;2.40;;;2.17;;
45356;SDS011;31092;51.924;21.448;2022-08-19T13:52:56;2.88;;;2.50;;
45356;SDS011;31092;51.924;21.448;2022-08-19T13:55:22;2.25;;;2.13;;
45356;SDS011;31092;51.924;21.448;2022-08-19T13:57:52;3.08;;;2.80;;
45356;SDS011;31092;51.924;21.448;2022-08-19T14:00:19;2.63;;;2.42;;
45356;SDS011;31092;51.924;21.448;2022-08-19T14:02:46;6.00;;;2.58;;
45356;SDS011;31092;51.924;21.448;2022-08-19T14:05:13;2.08;;;1.98;;
45356;SDS011;31092;51.924;21.448;2022-08-19T14:07:40;2.10;;;2.00;;
45356;SDS011;31092;51.924;21.448;2022-08-19T14:10:08;2.58;;;2.33;;
45356;SDS011;31092;51.924;21.448;2022-08-19T14:15:02;4.18;;;2.50;;
45356;SDS011;31092;51.924;21.448;2022-08-19T14:17:29;2.40;;;2.13;;
45356;SDS011;31092;51.924;21.448;2022-08-19T14:19:58;2.25;;;2.08;;
45356;SDS011;31092;51.924;21.448;2022-08-19T14:22:29;3.22;;;1.90;;
45356;SDS011;31092;51.924;21.448;2022-08-19T14:24:56;4.40;;;2.92;;
45356;SDS011;31092;51.924;21.448;2022-08-19T14:27:22;2.40;;;2.20;;
45356;SDS011;31092;51.924;21.448;2022-08-19T14:29:49;2.40;;;2.25;;
45356;SDS011;31092;51.924;21.448;2022-08-19T14:32:15;3.60;;;3.30;;
45356;SDS011;31092;51.924;21.448;2022-08-19T14:34:40;2.60;;;2.10;;
45356;SDS011;31092;51.924;21.448;2022-08-19T14:37:06;2.55;;;2.30;;
45356;SDS011;31092;51.924;21.448;2022-08-19T14:39:33;2.17;;;2.03;;
45356;SDS011;31092;51.924;21.448;2022-08-19T14:41:58;2.95;;;2.75;;
45356;SDS011;31092;51.924;21.448;2022-08-19T14:44:24;2.00;;;1.90;;
45356;SDS011;31092;51.924;21.448;2022-08-19T14:46:49;4.82;;;2.55;;
45356;SDS011;31092;51.924;21.448;2022-08-19T14:49:15;3.38;;;2.13;;
45356;SDS011;31092;51.924;21.448;2022-08-19T14:51:41;2.15;;;1.95;;
45356;SDS011;31092;51.924;21.448;2022-08-19T14:54:06;2.30;;;2.13;;
45356;SDS011;31092;51.924;21.448;2022-08-19T14:56:33;2.40;;;2.20;;
45356;SDS011;31092;51.924;21.448;2022-08-19T14:58:58;2.25;;;2.10;;
45356;SDS011;31092;51.924;21.448;2022-08-19T15:01:26;2.55;;;2.35;;
45356;SDS011;31092;51.924;21.448;2022-08-19T15:03:52;3.42;;;2.30;;
45356;SDS011;31092;51.924;21.448;2022-08-19T15:06:19;4.68;;;2.22;;
45356;SDS011;31092;51.924;21.448;2022-08-19T15:08:46;2.58;;;2.38;;
45356;SDS011;31092;51.924;21.448;2022-08-19T15:11:13;2.25;;;2.15;;
45356;SDS011;31092;51.924;21.448;2022-08-19T15:13:42;5.78;;;2.05;;